sensor_id;sensor_type;location;lat;lon;timestamp;temperature;humidity
16838;DHT22;19510;54.486;9.046;2023-09-30T00:00:42;15.00;99.90
16838;DHT22;19510;54.486;9.046;2023-09-30T00:03:08;15.00;99.90
16838;DHT22;19510;54.486;9.046;2023-09-30T00:05:36;15.00;99.90
16838;DHT22;19510;54.486;9.046;2023-09-30T00:08:05;15.00;99.90
16838;DHT22;19510;54.486;9.046;2023-09-30T00:10:34;15.00;99.90
16838;DHT22;19510;54.486;9.046;2023-09-30T00:13:00;15.00;99.90
16838;DHT22;19510;54.486;9.046;2023-09-30T00:15:28;15.00;99.90
16838;DHT22;19510;54.486;9.046;2023-09-30T00:17:54;14.90;99.90
16838;DHT22;19510;54.486;9.046;2023-09-30T00:20:21;14.90;99.90
16838;DHT22;19510;54.486;9.046;2023-09-30T00:22:48;14.90;99.90
16838;DHT22;19510;54.486;9.046;2023-09-30T00:25:13;14.90;99.90
16838;DHT22;19510;54.486;9.046;2023-09-30T00:27:39;14.90;99.90
16838;DHT22;19510;54.486;9.046;2023-09-30T00:30:05;14.90;99.90
16838;DHT22;19510;54.486;9.046;2023-09-30T00:32:34;15.00;99.90
16838;DHT22;19510;54.486;9.046;2023-09-30T00:35:03;15.00;99.90
16838;DHT22;19510;54.486;9.046;2023-09-30T00:37:28;15.00;99.90
16838;DHT22;19510;54.486;9.046;2023-09-30T00:39:54;15.00;99.90
16838;DHT22;19510;54.486;9.046;2023-09-30T00:42:21;15.00;99.90
16838;DHT22;19510;54.486;9.046;2023-09-30T00:44:47;15.00;99.90
16838;DHT22;19510;54.486;9.046;2023-09-30T00:47:13;15.10;99.90
16838;DHT22;19510;54.486;9.046;2023-09-30T00:49:40;15.10;99.90
16838;DHT22;19510;54.486;9.046;2023-09-30T00:52:09;15.20;99.90
16838;DHT22;19510;54.486;9.046;2023-09-30T00:54:38;15.20;99.90
16838;DHT22;19510;54.486;9.046;2023-09-30T00:57:05;15.20;99.90
16838;DHT22;19510;54.486;9.046;2023-09-30T00:59:31;15.20;99.90
16838;DHT22;19510;54.486;9.046;2023-09-30T01:01:59;15.20;99.90
16838;DHT22;19510;54.486;9.046;2023-09-30T01:04:28;15.20;99.90
16838;DHT22;19510;54.486;9.046;2023-09-30T01:06:57;15.20;99.90
16838;DHT22;19510;54.486;9.046;2023-09-30T01:09:23;15.20;99.90
16838;DHT22;19510;54.486;9.046;2023-09-30T01:11:49;15.20;99.90
16838;DHT22;19510;54.486;9.046;2023-09-30T01:14:31;15.10;99.90
16838;DHT22;19510;54.486;9.046;2023-09-30T01:17:00;15.10;99.90
16838;DHT22;19510;54.486;9.046;2023-09-30T01:19:29;15.20;99.90
16838;DHT22;19510;54.486;9.046;2023-09-30T01:21:58;15.10;99.90
16838;DHT22;19510;54.486;9.046;2023-09-30T01:24:37;15.10;99.90
16838;DHT22;19510;54.486;9.046;2023-09-30T01:27:03;15.10;99.90
16838;DHT22;19510;54.486;9.046;2023-09-30T01:29:29;15.20;99.90
16838;DHT22;19510;54.486;9.046;2023-09-30T01:31:54;15.20;99.90
16838;DHT22;19510;54.486;9.046;2023-09-30T01:34:21;15.20;99.90
16838;DHT22;19510;54.486;9.046;2023-09-30T01:36:46;15.10;99.90
16838;DHT22;19510;54.486;9.046;2023-09-30T01:39:12;15.10;99.90
16838;DHT22;19510;54.486;9.046;2023-09-30T01:41:41;15.10;99.90
16838;DHT22;19510;54.486;9.046;2023-09-30T01:44:07;15.10;99.90
16838;DHT22;19510;54.486;9.046;2023-09-30T01:46:35;15.10;99.90
16838;DHT22;19510;54.486;9.046;2023-09-30T01:49:02;15.10;99.90
16838;DHT22;19510;54.486;9.046;2023-09-30T01:51:29;15.10;99.90
16838;DHT22;19510;54.486;9.046;2023-09-30T01:53:55;15.20;99.90
16838;DHT22;19510;54.486;9.046;2023-09-30T01:56:23;15.20;99.90
16838;DHT22;19510;54.486;9.046;2023-09-30T01:58:49;15.20;99.90
16838;DHT22;19510;54.486;9.046;2023-09-30T02:01:15;15.20;99.90
16838;DHT22;19510;54.486;9.046;2023-09-30T02:03:41;15.20;99.90
16838;DHT22;19510;54.486;9.046;2023-09-30T02:06:07;15.30;99.90
16838;DHT22;19510;54.486;9.046;2023-09-30T02:08:33;15.20;99.90
16838;DHT22;19510;54.486;9.046;2023-09-30T02:11:02;15.20;99.90
16838;DHT22;19510;54.486;9.046;2023-09-30T02:13:28;15.20;99.90
16838;DHT22;19510;54.486;9.046;2023-09-30T02:15:53;15.30;99.90
16838;DHT22;19510;54.486;9.046;2023-09-30T02:18:21;15.30;99.90
16838;DHT22;19510;54.486;9.046;2023-09-30T02:20:49;15.30;99.90
16838;DHT22;19510;54.486;9.046;2023-09-30T02:23:15;15.20;99.90
16838;DHT22;19510;54.486;9.046;2023-09-30T02:25:43;15.20;99.90
16838;DHT22;19510;54.486;9.046;2023-09-30T02:28:13;15.20;99.90
16838;DHT22;19510;54.486;9.046;2023-09-30T02:30:39;15.20;99.90
16838;DHT22;19510;54.486;9.046;2023-09-30T02:33:05;15.20;99.90
16838;DHT22;19510;54.486;9.046;2023-09-30T02:35:32;15.10;99.90
16838;DHT22;19510;54.486;9.046;2023-09-30T02:37:58;15.10;99.90
16838;DHT22;19510;54.486;9.046;2023-09-30T02:40:24;15.10;99.90
16838;DHT22;19510;54.486;9.046;2023-09-30T02:42:51;15.10;99.90
16838;DHT22;19510;54.486;9.046;2023-09-30T02:45:19;15.10;99.90
16838;DHT22;19510;54.486;9.046;2023-09-30T02:47:45;15.10;99.90
16838;DHT22;19510;54.486;9.046;2023-09-30T02:50:11;15.10;99.90
16838;DHT22;19510;54.486;9.046;2023-09-30T02:52:37;15.20;99.90
16838;DHT22;19510;54.486;9.046;2023-09-30T02:55:04;15.20;99.90
16838;DHT22;19510;54.486;9.046;2023-09-30T02:57:32;15.20;99.90
16838;DHT22;19510;54.486;9.046;2023-09-30T03:00:06;15.20;99.90
16838;DHT22;19510;54.486;9.046;2023-09-30T03:02:54;15.30;99.90
16838;DHT22;19510;54.486;9.046;2023-09-30T03:05:21;15.20;99.90
16838;DHT22;19510;54.486;9.046;2023-09-30T03:07:47;15.20;99.90
16838;DHT22;19510;54.486;9.046;2023-09-30T03:10:13;15.20;99.90
16838;DHT22;19510;54.486;9.046;2023-09-30T03:12:47;15.20;99.90
16838;DHT22;19510;54.486;9.046;2023-09-30T03:15:13;15.20;99.90
16838;DHT22;19510;54.486;9.046;2023-09-30T03:17:40;15.20;99.90
16838;DHT22;19510;54.486;9.046;2023-09-30T03:20:07;15.20;99.90
16838;DHT22;19510;54.486;9.046;2023-09-30T03:22:43;15.20;99.90
16838;DHT22;19510;54.486;9.046;2023-09-30T03:25:10;15.10;99.90
16838;DHT22;19510;54.486;9.046;2023-09-30T03:27:37;15.00;99.90
16838;DHT22;19510;54.486;9.046;2023-09-30T03:30:07;15.00;99.90
16838;DHT22;19510;54.486;9.046;2023-09-30T03:32:34;15.00;99.90
16838;DHT22;19510;54.486;9.046;2023-09-30T03:35:08;15.00;99.90
16838;DHT22;19510;54.486;9.046;2023-09-30T03:37:36;15.00;99.90
16838;DHT22;19510;54.486;9.046;2023-09-30T03:40:03;14.90;99.90
16838;DHT22;19510;54.486;9.046;2023-09-30T03:42:42;14.90;99.90
16838;DHT22;19510;54.486;9.046;2023-09-30T03:45:08;15.00;99.90
16838;DHT22;19510;54.486;9.046;2023-09-30T03:47:35;14.90;99.90
16838;DHT22;19510;54.486;9.046;2023-09-30T03:50:01;14.90;99.90
16838;DHT22;19510;54.486;9.046;2023-09-30T03:52:29;14.90;99.90
16838;DHT22;19510;54.486;9.046;2023-09-30T03:54:59;14.90;99.90
16838;DHT22;19510;54.486;9.046;2023-09-30T03:57:24;14.80;99.90
16838;DHT22;19510;54.486;9.046;2023-09-30T03:59:50;14.80;99.90
16838;DHT22;19510;54.486;9.046;2023-09-30T04:02:16;14.80;99.90
16838;DHT22;19510;54.486;9.046;2023-09-30T04:04:41;14.80;99.90
16838;DHT22;19510;54.486;9.046;2023-09-30T04:07:07;14.80;99.90
16838;DHT22;19510;54.486;9.046;2023-09-30T04:09:35;14.70;99.90
16838;DHT22;19510;54.486;9.046;2023-09-30T04:12:03;14.80;99.90
16838;DHT22;19510;54.486;9.046;2023-09-30T04:14:29;14.80;99.90
16838;DHT22;19510;54.486;9.046;2023-09-30T04:16:55;14.70;99.90
16838;DHT22;19510;54.486;9.046;2023-09-30T04:19:20;14.70;99.90
16838;DHT22;19510;54.486;9.046;2023-09-30T04:21:47;14.70;99.90
16838;DHT22;19510;54.486;9.046;2023-09-30T04:24:12;14.70;99.90
16838;DHT22;19510;54.486;9.046;2023-09-30T04:26:38;14.60;99.90
16838;DHT22;19510;54.486;9.046;2023-09-30T04:29:05;14.60;99.90
16838;DHT22;19510;54.486;9.046;2023-09-30T04:31:33;14.70;99.90
16838;DHT22;19510;54.486;9.046;2023-09-30T04:33:59;14.70;99.90
16838;DHT22;19510;54.486;9.046;2023-09-30T04:36:24;14.70;99.90
16838;DHT22;19510;54.486;9.046;2023-09-30T04:38:50;14.60;99.90
16838;DHT22;19510;54.486;9.046;2023-09-30T04:41:16;14.60;99.90
16838;DHT22;19510;54.486;9.046;2023-09-30T04:43:42;14.60;99.90
16838;DHT22;19510;54.486;9.046;2023-09-30T04:46:09;14.60;99.90
16838;DHT22;19510;54.486;9.046;2023-09-30T04:48:37;14.70;99.90
16838;DHT22;19510;54.486;9.046;2023-09-30T04:51:06;14.70;99.90
16838;DHT22;19510;54.486;9.046;2023-09-30T04:53:32;14.60;99.90
16838;DHT22;19510;54.486;9.046;2023-09-30T04:56:02;14.70;99.90
16838;DHT22;19510;54.486;9.046;2023-09-30T04:58:28;14.70;99.90
16838;DHT22;19510;54.486;9.046;2023-09-30T05:00:57;14.70;99.90
16838;DHT22;19510;54.486;9.046;2023-09-30T05:03:22;14.70;99.90
16838;DHT22;19510;54.486;9.046;2023-09-30T05:05:50;14.70;99.90
16838;DHT22;19510;54.486;9.046;2023-09-30T05:08:19;14.70;99.90
16838;DHT22;19510;54.486;9.046;2023-09-30T05:10:44;14.70;99.90
16838;DHT22;19510;54.486;9.046;2023-09-30T05:13:11;14.60;99.90
16838;DHT22;19510;54.486;9.046;2023-09-30T05:15:37;14.60;99.90
16838;DHT22;19510;54.486;9.046;2023-09-30T05:18:03;14.70;99.90
16838;DHT22;19510;54.486;9.046;2023-09-30T05:20:30;14.70;99.90
16838;DHT22;19510;54.486;9.046;2023-09-30T05:22:58;14.70;99.90
16838;DHT22;19510;54.486;9.046;2023-09-30T05:25:24;14.70;99.90
16838;DHT22;19510;54.486;9.046;2023-09-30T05:27:52;14.70;99.90
16838;DHT22;19510;54.486;9.046;2023-09-30T05:30:17;14.70;99.90
16838;DHT22;19510;54.486;9.046;2023-09-30T05:32:45;14.70;99.90
16838;DHT22;19510;54.486;9.046;2023-09-30T05:35:12;14.70;99.90
16838;DHT22;19510;54.486;9.046;2023-09-30T05:37:42;14.70;99.90
16838;DHT22;19510;54.486;9.046;2023-09-30T05:40:08;14.70;99.90
16838;DHT22;19510;54.486;9.046;2023-09-30T05:42:45;14.70;99.90
16838;DHT22;19510;54.486;9.046;2023-09-30T05:45:11;14.60;99.90
16838;DHT22;19510;54.486;9.046;2023-09-30T05:47:41;14.70;99.90
16838;DHT22;19510;54.486;9.046;2023-09-30T05:50:07;14.70;99.90
16838;DHT22;19510;54.486;9.046;2023-09-30T05:52:34;14.60;99.90
16838;DHT22;19510;54.486;9.046;2023-09-30T05:55:01;14.70;99.90
16838;DHT22;19510;54.486;9.046;2023-09-30T05:57:28;14.60;99.90
16838;DHT22;19510;54.486;9.046;2023-09-30T05:59:54;14.60;99.90
16838;DHT22;19510;54.486;9.046;2023-09-30T06:02:19;14.60;99.90
16838;DHT22;19510;54.486;9.046;2023-09-30T06:04:45;14.60;99.90
16838;DHT22;19510;54.486;9.046;2023-09-30T06:07:12;14.70;99.90
16838;DHT22;19510;54.486;9.046;2023-09-30T06:09:38;14.70;99.90
16838;DHT22;19510;54.486;9.046;2023-09-30T06:12:03;14.70;99.90
16838;DHT22;19510;54.486;9.046;2023-09-30T06:14:32;14.70;99.90
16838;DHT22;19510;54.486;9.046;2023-09-30T06:16:58;14.70;99.90
16838;DHT22;19510;54.486;9.046;2023-09-30T06:19:24;14.70;99.90
16838;DHT22;19510;54.486;9.046;2023-09-30T06:21:51;14.70;99.90
16838;DHT22;19510;54.486;9.046;2023-09-30T06:24:17;14.70;99.90
16838;DHT22;19510;54.486;9.046;2023-09-30T06:26:45;14.80;99.90
16838;DHT22;19510;54.486;9.046;2023-09-30T06:29:12;14.80;99.90
16838;DHT22;19510;54.486;9.046;2023-09-30T06:31:38;14.80;99.90
16838;DHT22;19510;54.486;9.046;2023-09-30T06:34:04;14.80;99.90
16838;DHT22;19510;54.486;9.046;2023-09-30T06:36:30;14.80;99.90
16838;DHT22;19510;54.486;9.046;2023-09-30T06:38:56;14.90;99.90
16838;DHT22;19510;54.486;9.046;2023-09-30T06:41:21;14.90;99.90
16838;DHT22;19510;54.486;9.046;2023-09-30T06:43:49;14.90;99.90
16838;DHT22;19510;54.486;9.046;2023-09-30T06:46:15;15.00;99.90
16838;DHT22;19510;54.486;9.046;2023-09-30T06:48:41;15.00;99.90
16838;DHT22;19510;54.486;9.046;2023-09-30T06:51:07;15.00;99.90
16838;DHT22;19510;54.486;9.046;2023-09-30T06:53:32;15.00;99.90
16838;DHT22;19510;54.486;9.046;2023-09-30T06:55:58;15.00;99.90
16838;DHT22;19510;54.486;9.046;2023-09-30T06:58:24;15.00;99.90
16838;DHT22;19510;54.486;9.046;2023-09-30T07:00:51;15.10;99.90
16838;DHT22;19510;54.486;9.046;2023-09-30T07:03:17;15.10;99.90
16838;DHT22;19510;54.486;9.046;2023-09-30T07:05:45;15.20;99.90
16838;DHT22;19510;54.486;9.046;2023-09-30T07:08:12;15.20;99.90
16838;DHT22;19510;54.486;9.046;2023-09-30T07:10:38;15.20;99.90
16838;DHT22;19510;54.486;9.046;2023-09-30T07:13:04;15.30;99.90
16838;DHT22;19510;54.486;9.046;2023-09-30T07:15:30;15.30;99.90
16838;DHT22;19510;54.486;9.046;2023-09-30T07:17:56;15.40;99.90
16838;DHT22;19510;54.486;9.046;2023-09-30T07:20:21;15.40;99.90
16838;DHT22;19510;54.486;9.046;2023-09-30T07:22:48;15.50;99.90
16838;DHT22;19510;54.486;9.046;2023-09-30T07:25:14;15.50;99.90
16838;DHT22;19510;54.486;9.046;2023-09-30T07:27:46;15.50;99.90
16838;DHT22;19510;54.486;9.046;2023-09-30T07:30:13;15.60;99.90
16838;DHT22;19510;54.486;9.046;2023-09-30T07:32:43;15.60;99.90
16838;DHT22;19510;54.486;9.046;2023-09-30T07:35:09;15.60;99.90
16838;DHT22;19510;54.486;9.046;2023-09-30T07:37:35;15.70;99.90
16838;DHT22;19510;54.486;9.046;2023-09-30T07:40:02;15.80;99.90
16838;DHT22;19510;54.486;9.046;2023-09-30T07:42:28;15.80;99.90
16838;DHT22;19510;54.486;9.046;2023-09-30T07:44:54;15.90;99.90
16838;DHT22;19510;54.486;9.046;2023-09-30T07:47:20;16.00;99.90
16838;DHT22;19510;54.486;9.046;2023-09-30T07:49:45;16.00;99.90
16838;DHT22;19510;54.486;9.046;2023-09-30T07:52:12;16.10;99.90
16838;DHT22;19510;54.486;9.046;2023-09-30T07:54:37;16.10;99.90
16838;DHT22;19510;54.486;9.046;2023-09-30T07:57:03;16.20;99.90
16838;DHT22;19510;54.486;9.046;2023-09-30T07:59:29;16.40;99.90
16838;DHT22;19510;54.486;9.046;2023-09-30T08:01:54;16.40;99.90
16838;DHT22;19510;54.486;9.046;2023-09-30T08:04:21;16.50;99.90
16838;DHT22;19510;54.486;9.046;2023-09-30T08:06:47;16.60;99.90
16838;DHT22;19510;54.486;9.046;2023-09-30T08:09:13;16.60;99.90
16838;DHT22;19510;54.486;9.046;2023-09-30T08:11:39;16.70;99.90
16838;DHT22;19510;54.486;9.046;2023-09-30T08:14:05;16.70;99.90
16838;DHT22;19510;54.486;9.046;2023-09-30T08:16:35;16.70;99.90
16838;DHT22;19510;54.486;9.046;2023-09-30T08:19:04;16.70;99.90
16838;DHT22;19510;54.486;9.046;2023-09-30T08:21:30;16.70;99.90
16838;DHT22;19510;54.486;9.046;2023-09-30T08:23:59;16.80;99.90
16838;DHT22;19510;54.486;9.046;2023-09-30T08:26:24;16.80;99.90
16838;DHT22;19510;54.486;9.046;2023-09-30T08:28:51;16.80;99.90
16838;DHT22;19510;54.486;9.046;2023-09-30T08:31:16;16.80;99.90
16838;DHT22;19510;54.486;9.046;2023-09-30T08:34:13;16.80;99.90
16838;DHT22;19510;54.486;9.046;2023-09-30T08:36:42;16.80;99.90
16838;DHT22;19510;54.486;9.046;2023-09-30T08:39:11;16.80;99.90
16838;DHT22;19510;54.486;9.046;2023-09-30T08:41:37;16.90;99.90
16838;DHT22;19510;54.486;9.046;2023-09-30T08:44:04;16.90;99.90
16838;DHT22;19510;54.486;9.046;2023-09-30T08:46:34;16.90;99.90
16838;DHT22;19510;54.486;9.046;2023-09-30T08:49:04;16.90;99.90
16838;DHT22;19510;54.486;9.046;2023-09-30T08:51:31;17.00;99.90
16838;DHT22;19510;54.486;9.046;2023-09-30T08:53:59;17.00;99.90
16838;DHT22;19510;54.486;9.046;2023-09-30T08:56:28;17.00;99.90
16838;DHT22;19510;54.486;9.046;2023-09-30T08:58:58;17.00;99.90
16838;DHT22;19510;54.486;9.046;2023-09-30T09:01:28;17.10;99.90
16838;DHT22;19510;54.486;9.046;2023-09-30T09:03:55;17.10;99.90
16838;DHT22;19510;54.486;9.046;2023-09-30T09:06:25;17.10;99.90
16838;DHT22;19510;54.486;9.046;2023-09-30T09:08:51;17.10;99.90
16838;DHT22;19510;54.486;9.046;2023-09-30T09:11:36;17.10;99.90
16838;DHT22;19510;54.486;9.046;2023-09-30T09:14:05;17.20;99.90
16838;DHT22;19510;54.486;9.046;2023-09-30T09:16:32;17.20;99.90
16838;DHT22;19510;54.486;9.046;2023-09-30T09:18:58;17.30;99.90
16838;DHT22;19510;54.486;9.046;2023-09-30T09:21:24;17.30;99.90
16838;DHT22;19510;54.486;9.046;2023-09-30T09:23:56;17.30;99.90
16838;DHT22;19510;54.486;9.046;2023-09-30T09:27:06;17.40;99.90
16838;DHT22;19510;54.486;9.046;2023-09-30T09:29:33;17.40;99.90
16838;DHT22;19510;54.486;9.046;2023-09-30T09:32:12;17.50;99.90
16838;DHT22;19510;54.486;9.046;2023-09-30T09:34:39;17.50;99.90
16838;DHT22;19510;54.486;9.046;2023-09-30T09:37:18;17.50;99.90
16838;DHT22;19510;54.486;9.046;2023-09-30T09:39:54;17.70;99.90
16838;DHT22;19510;54.486;9.046;2023-09-30T09:42:32;17.70;99.90
16838;DHT22;19510;54.486;9.046;2023-09-30T09:45:03;17.70;99.90
16838;DHT22;19510;54.486;9.046;2023-09-30T09:47:32;17.80;99.90
16838;DHT22;19510;54.486;9.046;2023-09-30T09:49:58;17.70;99.90
16838;DHT22;19510;54.486;9.046;2023-09-30T09:52:25;17.80;99.90
16838;DHT22;19510;54.486;9.046;2023-09-30T09:54:52;17.70;99.90
16838;DHT22;19510;54.486;9.046;2023-09-30T09:57:18;17.70;99.90
16838;DHT22;19510;54.486;9.046;2023-09-30T09:59:45;17.80;99.90
16838;DHT22;19510;54.486;9.046;2023-09-30T10:02:16;17.80;99.90
16838;DHT22;19510;54.486;9.046;2023-09-30T10:04:47;17.80;99.90
16838;DHT22;19510;54.486;9.046;2023-09-30T10:07:22;17.80;99.90
16838;DHT22;19510;54.486;9.046;2023-09-30T10:09:52;17.90;99.90
16838;DHT22;19510;54.486;9.046;2023-09-30T10:12:19;18.00;99.90
16838;DHT22;19510;54.486;9.046;2023-09-30T10:14:45;18.10;99.90
16838;DHT22;19510;54.486;9.046;2023-09-30T10:17:13;18.20;99.90
16838;DHT22;19510;54.486;9.046;2023-09-30T10:20:04;18.20;99.90
16838;DHT22;19510;54.486;9.046;2023-09-30T10:22:32;18.20;99.90
16838;DHT22;19510;54.486;9.046;2023-09-30T10:24:59;18.20;99.90
16838;DHT22;19510;54.486;9.046;2023-09-30T10:35:16;18.30;99.90
16838;DHT22;19510;54.486;9.046;2023-09-30T10:37:43;18.40;99.90
16838;DHT22;19510;54.486;9.046;2023-09-30T10:40:10;18.40;99.90
16838;DHT22;19510;54.486;9.046;2023-09-30T10:42:51;18.30;99.90
16838;DHT22;19510;54.486;9.046;2023-09-30T10:51:09;18.00;99.90
16838;DHT22;19510;54.486;9.046;2023-09-30T10:53:44;18.10;99.90
16838;DHT22;19510;54.486;9.046;2023-09-30T10:56:10;18.00;99.90
16838;DHT22;19510;54.486;9.046;2023-09-30T10:58:43;18.00;99.90
16838;DHT22;19510;54.486;9.046;2023-09-30T11:01:10;18.10;99.90
16838;DHT22;19510;54.486;9.046;2023-09-30T11:03:36;18.20;99.90
16838;DHT22;19510;54.486;9.046;2023-09-30T11:06:02;18.20;99.90
16838;DHT22;19510;54.486;9.046;2023-09-30T11:08:29;18.40;99.90
16838;DHT22;19510;54.486;9.046;2023-09-30T11:10:56;18.60;99.90
16838;DHT22;19510;54.486;9.046;2023-09-30T11:14:01;18.60;99.90
16838;DHT22;19510;54.486;9.046;2023-09-30T11:20:35;18.90;99.90
16838;DHT22;19510;54.486;9.046;2023-09-30T11:23:01;19.00;99.90
16838;DHT22;19510;54.486;9.046;2023-09-30T11:25:27;19.00;99.90
16838;DHT22;19510;54.486;9.046;2023-09-30T11:28:19;19.10;99.90
16838;DHT22;19510;54.486;9.046;2023-09-30T11:31:01;19.20;99.90
16838;DHT22;19510;54.486;9.046;2023-09-30T11:33:28;19.20;99.90
16838;DHT22;19510;54.486;9.046;2023-09-30T11:36:01;19.00;99.90
16838;DHT22;19510;54.486;9.046;2023-09-30T11:38:31;18.90;99.90
16838;DHT22;19510;54.486;9.046;2023-09-30T11:41:01;18.80;99.90
16838;DHT22;19510;54.486;9.046;2023-09-30T11:43:30;18.70;99.90
16838;DHT22;19510;54.486;9.046;2023-09-30T11:46:05;18.50;99.90
16838;DHT22;19510;54.486;9.046;2023-09-30T11:48:31;18.40;99.90
16838;DHT22;19510;54.486;9.046;2023-09-30T11:50:59;18.30;99.90
16838;DHT22;19510;54.486;9.046;2023-09-30T11:53:31;18.40;99.90
16838;DHT22;19510;54.486;9.046;2023-09-30T11:55:59;18.50;99.90
16838;DHT22;19510;54.486;9.046;2023-09-30T11:58:30;18.60;99.90
16838;DHT22;19510;54.486;9.046;2023-09-30T12:01:00;18.60;99.90
16838;DHT22;19510;54.486;9.046;2023-09-30T12:03:27;18.60;99.90
16838;DHT22;19510;54.486;9.046;2023-09-30T12:05:53;18.60;99.90
16838;DHT22;19510;54.486;9.046;2023-09-30T12:08:21;18.70;99.90
16838;DHT22;19510;54.486;9.046;2023-09-30T12:10:47;18.70;99.90
16838;DHT22;19510;54.486;9.046;2023-09-30T12:13:14;18.80;99.90
16838;DHT22;19510;54.486;9.046;2023-09-30T12:15:41;18.70;99.90
16838;DHT22;19510;54.486;9.046;2023-09-30T12:18:07;18.80;99.90
16838;DHT22;19510;54.486;9.046;2023-09-30T12:20:33;18.70;99.90
16838;DHT22;19510;54.486;9.046;2023-09-30T12:22:59;18.80;99.90
16838;DHT22;19510;54.486;9.046;2023-09-30T12:25:24;18.80;99.90
16838;DHT22;19510;54.486;9.046;2023-09-30T12:27:50;18.90;99.90
16838;DHT22;19510;54.486;9.046;2023-09-30T12:30:16;18.80;99.90
16838;DHT22;19510;54.486;9.046;2023-09-30T12:32:45;18.90;99.90
16838;DHT22;19510;54.486;9.046;2023-09-30T12:35:11;18.90;99.90
16838;DHT22;19510;54.486;9.046;2023-09-30T12:37:41;19.00;99.90
16838;DHT22;19510;54.486;9.046;2023-09-30T12:40:10;19.00;99.90
16838;DHT22;19510;54.486;9.046;2023-09-30T12:45:54;19.00;99.90
16838;DHT22;19510;54.486;9.046;2023-09-30T12:48:19;19.00;99.90
16838;DHT22;19510;54.486;9.046;2023-09-30T12:50:45;19.00;99.90
16838;DHT22;19510;54.486;9.046;2023-09-30T12:53:11;18.90;99.90
16838;DHT22;19510;54.486;9.046;2023-09-30T12:55:36;18.80;99.90
16838;DHT22;19510;54.486;9.046;2023-09-30T12:58:02;18.70;99.90
16838;DHT22;19510;54.486;9.046;2023-09-30T13:00:36;18.60;99.90
16838;DHT22;19510;54.486;9.046;2023-09-30T13:03:02;18.70;99.90
16838;DHT22;19510;54.486;9.046;2023-09-30T13:05:28;18.60;99.90
16838;DHT22;19510;54.486;9.046;2023-09-30T13:07:57;18.80;99.90
16838;DHT22;19510;54.486;9.046;2023-09-30T13:10:23;18.80;99.90
16838;DHT22;19510;54.486;9.046;2023-09-30T13:12:49;18.70;99.90
16838;DHT22;19510;54.486;9.046;2023-09-30T13:15:19;18.80;99.90
16838;DHT22;19510;54.486;9.046;2023-09-30T13:17:45;18.70;99.90
16838;DHT22;19510;54.486;9.046;2023-09-30T13:20:11;18.80;99.90
16838;DHT22;19510;54.486;9.046;2023-09-30T13:22:40;18.90;99.90
16838;DHT22;19510;54.486;9.046;2023-09-30T13:25:06;18.90;99.90
16838;DHT22;19510;54.486;9.046;2023-09-30T13:27:33;18.90;99.90
16838;DHT22;19510;54.486;9.046;2023-09-30T13:30:00;18.90;99.90
16838;DHT22;19510;54.486;9.046;2023-09-30T13:32:27;18.90;99.90
16838;DHT22;19510;54.486;9.046;2023-09-30T13:34:53;18.90;99.90
16838;DHT22;19510;54.486;9.046;2023-09-30T13:37:19;19.00;99.90
16838;DHT22;19510;54.486;9.046;2023-09-30T13:39:45;19.00;99.90
16838;DHT22;19510;54.486;9.046;2023-09-30T13:42:11;19.00;99.90
16838;DHT22;19510;54.486;9.046;2023-09-30T13:44:46;18.90;99.90
16838;DHT22;19510;54.486;9.046;2023-09-30T13:47:11;18.90;99.90
16838;DHT22;19510;54.486;9.046;2023-09-30T13:49:37;18.80;99.90
16838;DHT22;19510;54.486;9.046;2023-09-30T13:52:06;18.70;99.90
16838;DHT22;19510;54.486;9.046;2023-09-30T13:54:34;18.60;99.90
16838;DHT22;19510;54.486;9.046;2023-09-30T13:57:00;18.60;99.90
16838;DHT22;19510;54.486;9.046;2023-09-30T13:59:26;18.50;99.90
16838;DHT22;19510;54.486;9.046;2023-09-30T17:03:55;16.80;99.90
16838;DHT22;19510;54.486;9.046;2023-09-30T17:21:52;16.70;99.90
16838;DHT22;19510;54.486;9.046;2023-09-30T17:24:18;16.70;99.90
16838;DHT22;19510;54.486;9.046;2023-09-30T17:26:46;16.70;99.90
16838;DHT22;19510;54.486;9.046;2023-09-30T17:29:11;16.70;99.90
16838;DHT22;19510;54.486;9.046;2023-09-30T17:31:37;16.70;99.90
16838;DHT22;19510;54.486;9.046;2023-09-30T17:34:03;16.70;99.90
16838;DHT22;19510;54.486;9.046;2023-09-30T17:36:29;16.60;99.90
16838;DHT22;19510;54.486;9.046;2023-09-30T17:38:55;16.60;99.90
16838;DHT22;19510;54.486;9.046;2023-09-30T17:41:20;16.50;99.90
16838;DHT22;19510;54.486;9.046;2023-09-30T17:43:46;16.50;99.90
16838;DHT22;19510;54.486;9.046;2023-09-30T17:46:15;16.50;99.90
16838;DHT22;19510;54.486;9.046;2023-09-30T17:48:45;16.50;99.90
16838;DHT22;19510;54.486;9.046;2023-09-30T17:51:14;16.50;99.90
16838;DHT22;19510;54.486;9.046;2023-09-30T17:53:53;16.40;99.90
16838;DHT22;19510;54.486;9.046;2023-09-30T17:56:22;16.40;99.90
16838;DHT22;19510;54.486;9.046;2023-09-30T17:58:50;16.50;99.90
16838;DHT22;19510;54.486;9.046;2023-09-30T18:01:18;16.50;99.90
16838;DHT22;19510;54.486;9.046;2023-09-30T18:03:51;16.50;99.90
16838;DHT22;19510;54.486;9.046;2023-09-30T18:06:18;16.40;99.90
16838;DHT22;19510;54.486;9.046;2023-09-30T18:08:44;16.40;99.90
16838;DHT22;19510;54.486;9.046;2023-09-30T18:11:12;16.30;99.90
16838;DHT22;19510;54.486;9.046;2023-09-30T18:13:40;16.40;99.90
16838;DHT22;19510;54.486;9.046;2023-09-30T18:16:06;16.40;99.90
16838;DHT22;19510;54.486;9.046;2023-09-30T18:18:33;16.40;99.90
16838;DHT22;19510;54.486;9.046;2023-09-30T18:20:59;16.30;99.90
16838;DHT22;19510;54.486;9.046;2023-09-30T18:23:25;16.30;99.90
16838;DHT22;19510;54.486;9.046;2023-09-30T18:25:51;16.20;99.90
16838;DHT22;19510;54.486;9.046;2023-09-30T18:28:20;16.20;99.90
16838;DHT22;19510;54.486;9.046;2023-09-30T18:30:45;16.20;99.90
16838;DHT22;19510;54.486;9.046;2023-09-30T18:33:14;16.20;99.90
16838;DHT22;19510;54.486;9.046;2023-09-30T18:35:41;16.20;99.90
16838;DHT22;19510;54.486;9.046;2023-09-30T18:38:07;16.30;99.90
16838;DHT22;19510;54.486;9.046;2023-09-30T18:40:34;16.30;99.90
16838;DHT22;19510;54.486;9.046;2023-09-30T18:43:04;16.30;99.90
16838;DHT22;19510;54.486;9.046;2023-09-30T18:45:42;16.30;99.90
16838;DHT22;19510;54.486;9.046;2023-09-30T18:48:09;16.30;99.90
16838;DHT22;19510;54.486;9.046;2023-09-30T18:50:42;16.30;99.90
16838;DHT22;19510;54.486;9.046;2023-09-30T18:53:14;16.30;99.90
16838;DHT22;19510;54.486;9.046;2023-09-30T18:55:41;16.30;99.90
16838;DHT22;19510;54.486;9.046;2023-09-30T18:58:08;16.20;99.90
16838;DHT22;19510;54.486;9.046;2023-09-30T19:00:36;16.20;99.90
16838;DHT22;19510;54.486;9.046;2023-09-30T19:03:04;16.20;99.90
16838;DHT22;19510;54.486;9.046;2023-09-30T19:05:34;16.20;99.90
16838;DHT22;19510;54.486;9.046;2023-09-30T19:08:00;16.10;99.90
16838;DHT22;19510;54.486;9.046;2023-09-30T19:10:26;16.10;99.90
16838;DHT22;19510;54.486;9.046;2023-09-30T19:12:54;16.00;99.90